Time;durP1;ratioP1;P1;durP2;ratioP2;P2;SDS_P1;SDS_P2;PMS_P1;PMS_P2;Temp;Humidity;BMP_temperature;BMP_pressure;BME280_temperature;BME280_humidity;BME280_pressure;Samples;Min_cycle;Max_cycle;Signal;HPM_P1;HPM_P2
2020/12/06 00:00:47;;;;;;;16.50;8.70;;;;;;;0.06;94.29;100180.47;5076126;28;20066;-71
2020/12/06 00:03:12;;;;;;;21.02;9.00;;;;;;;0.08;94.04;100181.31;5075390;28;20421;-69
2020/12/06 00:05:38;;;;;;;15.73;9.25;;;;;;;0.03;94.36;100185.69;5088488;28;20485;-71
2020/12/06 00:08:03;;;;;;;14.40;8.73;;;;;;;0.07;94.05;100189.97;5071058;28;20028;-72
2020/12/06 00:10:28;;;;;;;11.98;8.00;;;;;;;0.09;93.77;100196.00;5087942;28;20035;-71
2020/12/06 00:12:54;;;;;;;14.63;8.73;;;;;;;-0.01;93.78;100195.25;5106208;27;20026;-70
2020/12/06 00:15:19;;;;;;;12.88;8.40;;;;;;;0.00;94.06;100197.00;5093732;28;20113;-70
2020/12/06 00:17:44;;;;;;;13.00;8.82;;;;;;;0.03;94.16;100202.16;5095248;28;20027;-71
2020/12/06 00:20:11;;;;;;;12.95;9.00;;;;;;;0.06;94.04;100204.72;5061128;28;20031;-71
2020/12/06 00:22:37;;;;;;;11.68;7.97;;;;;;;0.10;94.09;100198.63;5068242;28;20481;-71
2020/12/06 00:25:03;;;;;;;13.82;8.10;;;;;;;0.09;93.68;100199.47;5076055;28;20036;-73
2020/12/06 00:27:37;;;;;;;13.63;8.55;;;;;;;0.19;93.35;100189.81;5096554;28;20026;-72
2020/12/06 00:30:08;;;;;;;15.07;9.05;;;;;;;0.12;93.65;100183.84;5094669;28;20077;-72
2020/12/06 00:32:33;;;;;;;12.68;8.77;;;;;;;0.12;94.02;100183.84;5096808;28;20023;-72
2020/12/06 00:34:58;;;;;;;16.10;8.98;;;;;;;0.16;93.66;100184.69;5094512;28;20055;-72
2020/12/06 00:37:24;;;;;;;12.98;8.82;;;;;;;0.07;94.03;100187.38;5096353;28;20496;-72
2020/12/06 00:39:49;;;;;;;14.05;8.32;;;;;;;0.05;94.26;100177.03;5096438;28;20052;-72
2020/12/06 00:42:14;;;;;;;12.93;8.43;;;;;;;0.08;93.89;100165.72;5095363;28;20062;-72
2020/12/06 00:44:40;;;;;;;11.25;8.18;;;;;;;0.05;93.85;100178.72;5078764;28;20381;-72
2020/12/06 00:47:05;;;;;;;12.20;8.60;;;;;;;-0.03;94.21;100184.03;5078085;28;20048;-72
2020/12/06 00:49:30;;;;;;;12.52;8.77;;;;;;;-0.06;94.53;100173.66;5078900;28;20058;-72
2020/12/06 00:51:56;;;;;;;13.80;9.50;;;;;;;-0.14;94.71;100178.13;5096189;28;20030;-72
2020/12/06 00:54:21;;;;;;;12.45;8.77;;;;;;;-0.18;94.99;100186.81;5099443;28;20035;-72
2020/12/06 00:56:46;;;;;;;13.05;8.63;;;;;;;-0.08;95.07;100191.03;5092589;28;20107;-72
2020/12/06 00:59:12;;;;;;;16.38;9.98;;;;;;;-0.09;95.04;100192.75;5094311;28;20027;-71
2020/12/06 01:01:39;;;;;;;16.98;9.50;;;;;;;-0.15;95.08;100191.94;5088872;28;20055;-72
2020/12/06 01:04:05;;;;;;;14.10;9.35;;;;;;;-0.19;95.35;100187.69;5099920;28;20031;-71
2020/12/06 01:06:30;;;;;;;15.38;9.82;;;;;;;-0.17;95.76;100191.97;5089888;28;20046;-74
2020/12/06 01:08:55;;;;;;;14.70;9.20;;;;;;;-0.17;95.41;100198.91;5097717;28;20024;-71
2020/12/06 01:11:21;;;;;;;11.90;8.73;;;;;;;-0.24;95.72;100189.47;5089478;28;20020;-71
2020/12/06 01:13:46;;;;;;;15.00;9.10;;;;;;;-0.27;95.88;100185.16;5096589;28;20031;-71
2020/12/06 01:16:13;;;;;;;13.30;8.95;;;;;;;-0.29;96.06;100185.19;5092117;28;20054;-72
2020/12/06 01:18:38;;;;;;;13.35;9.30;;;;;;;-0.28;95.97;100171.31;5075034;28;20431;-71
2020/12/06 01:21:04;;;;;;;13.23;9.30;;;;;;;-0.28;96.18;100171.31;5088489;28;20027;-71
2020/12/06 01:23:29;;;;;;;16.15;10.05;;;;;;;-0.34;96.61;100179.19;5096305;28;20028;-70
2020/12/06 01:25:54;;;;;;;14.27;8.90;;;;;;;-0.32;96.19;100174.81;5093669;28;20515;-70
2020/12/06 01:28:19;;;;;;;14.50;9.20;;;;;;;-0.38;96.40;100177.50;5092608;28;20044;-70
2020/12/06 01:30:45;;;;;;;16.35;9.98;;;;;;;-0.46;96.56;100171.50;5094320;28;20028;-71
2020/12/06 01:33:10;;;;;;;15.13;9.60;;;;;;;-0.54;97.00;100178.53;5093501;28;20031;-70
2020/12/06 01:35:35;;;;;;;14.40;9.73;;;;;;;-0.53;96.99;100168.13;5097068;28;20031;-70
2020/12/06 01:38:01;;;;;;;16.75;10.20;;;;;;;-0.58;97.22;100179.44;5092301;28;20035;-71
2020/12/06 01:40:27;;;;;;;16.95;9.68;;;;;;;-0.54;97.35;100183.72;5098376;28;20025;-71
2020/12/06 01:42:53;;;;;;;13.00;9.18;;;;;;;-0.54;97.38;100189.78;5091132;28;20126;-71
2020/12/06 01:45:18;;;;;;;15.57;10.65;;;;;;;-0.57;97.07;100188.94;5096864;28;20571;-71
2020/12/06 01:47:43;;;;;;;15.05;9.77;;;;;;;-0.58;97.33;100193.25;5094343;28;20023;-72
2020/12/06 01:50:09;;;;;;;17.45;10.18;;;;;;;-0.57;97.48;100197.56;5090483;28;20051;-70
2020/12/06 01:52:35;;;;;;;15.80;11.15;;;;;;;-0.59;97.55;100196.75;5098704;28;20057;-71
2020/12/06 01:55:03;;;;;;;15.95;10.68;;;;;;;-0.59;97.68;100195.88;5101403;28;20073;-71
2020/12/06 01:57:29;;;;;;;15.38;11.02;;;;;;;-0.57;97.78;100197.56;5088751;28;20428;-71
2020/12/06 01:59:54;;;;;;;13.45;9.88;;;;;;;-0.46;97.82;100202.66;5100454;28;20026;-71
2020/12/06 02:02:19;;;;;;;16.67;11.23;;;;;;;-0.42;97.70;100209.53;5097687;28;20041;-71
2020/12/06 02:04:45;;;;;;;17.38;11.55;;;;;;;-0.41;97.68;100215.59;5098080;28;20514;-71
2020/12/06 02:07:11;;;;;;;16.83;10.60;;;;;;;-0.35;97.57;100224.22;5093730;28;20220;-71
2020/12/06 02:09:36;;;;;;;18.67;12.63;;;;;;;-0.33;97.70;100237.16;5099560;28;20469;-71
2020/12/06 02:12:07;;;;;;;20.00;12.68;;;;;;;-0.20;97.32;100241.38;5089480;28;20038;-71
2020/12/06 02:14:33;;;;;;;21.20;12.45;;;;;;;-0.22;97.30;100237.91;5100169;28;20502;-71
2020/12/06 02:16:58;;;;;;;18.67;12.40;;;;;;;-0.18;97.18;100230.97;5091712;28;20073;-71
2020/12/06 02:19:23;;;;;;;19.88;12.93;;;;;;;-0.25;97.03;100222.38;5091868;28;20031;-72
2020/12/06 02:21:49;;;;;;;19.95;13.23;;;;;;;-0.16;97.14;100232.66;5097273;28;20024;-71
2020/12/06 02:24:17;;;;;;;22.45;13.27;;;;;;;-0.16;97.38;100232.66;5092743;28;20034;-71
2020/12/06 02:26:45;;;;;;;19.92;13.10;;;;;;;-0.16;97.08;100235.25;5089045;28;20069;-72
2020/12/06 02:29:12;;;;;;;18.98;12.88;;;;;;;-0.21;97.24;100242.22;5094112;28;20117;-72
2020/12/06 02:31:38;;;;;;;18.10;12.55;;;;;;;-0.32;97.44;100241.47;5094791;28;20031;-72
2020/12/06 02:34:04;;;;;;;21.10;14.57;;;;;;;-0.32;97.59;100249.28;5095431;28;20098;-74
2020/12/06 02:36:30;;;;;;;23.48;14.10;;;;;;;-0.27;97.86;100237.09;5093771;28;20027;-72
2020/12/06 02:38:56;;;;;;;21.55;13.13;;;;;;;-0.34;97.94;100236.31;5099095;28;20029;-72
2020/12/06 02:41:21;;;;;;;20.73;13.60;;;;;;;-0.37;98.03;100243.25;5093548;28;20504;-72
2020/12/06 02:43:47;;;;;;;20.67;13.65;;;;;;;-0.40;98.19;100231.19;5092217;28;20514;-72
2020/12/06 02:46:12;;;;;;;22.20;13.32;;;;;;;-0.43;98.20;100219.97;5069605;28;20071;-72
2020/12/06 02:48:38;;;;;;;25.30;14.18;;;;;;;-0.43;98.49;100213.03;5098324;28;20028;-71
2020/12/06 02:51:04;;;;;;;28.30;14.80;;;;;;;-0.48;98.45;100209.63;5098090;28;20485;-71
2020/12/06 02:53:30;;;;;;;23.48;14.82;;;;;;;-0.49;98.56;100207.03;5095116;28;20031;-71
2020/12/06 02:55:55;;;;;;;23.13;15.82;;;;;;;-0.55;98.70;100201.03;5096988;28;20024;-71
2020/12/06 02:58:20;;;;;;;24.20;15.82;;;;;;;-0.56;98.87;100201.03;5095017;27;20058;-71
2020/12/06 03:06:37;;;;;;;24.33;14.70;;;;;;;-0.62;98.66;100185.50;5099587;28;20035;-71
2020/12/06 03:09:02;;;;;;;27.13;15.93;;;;;;;-0.60;98.83;100192.44;5136048;27;20496;-71
2020/12/06 03:11:27;;;;;;;23.45;15.32;;;;;;;-0.66;99.10;100195.06;5097967;28;20106;-71
2020/12/06 03:13:53;;;;;;;25.45;16.42;;;;;;;-0.70;98.97;100197.69;5101748;28;20465;-72
2020/12/06 03:16:19;;;;;;;25.90;15.52;;;;;;;-0.76;99.08;100192.56;5097197;28;20051;-72
2020/12/06 03:18:44;;;;;;;25.05;15.75;;;;;;;-0.77;99.36;100194.28;5097006;28;20027;-72
2020/12/06 03:21:09;;;;;;;24.52;15.27;;;;;;;-0.73;99.40;100197.72;5096572;28;20063;-72
2020/12/06 03:23:35;;;;;;;24.35;15.52;;;;;;;-0.82;99.55;100196.06;5096749;28;20023;-72
2020/12/06 03:26:01;;;;;;;24.50;15.50;;;;;;;-0.85;99.52;100196.13;5097269;28;20679;-72
2020/12/06 03:28:26;;;;;;;24.70;16.27;;;;;;;-0.81;99.81;100206.44;5090948;28;20023;-71
2020/12/06 03:30:52;;;;;;;28.35;17.73;;;;;;;-0.76;99.81;100205.53;5092503;28;20400;-71
2020/12/06 03:33:17;;;;;;;28.00;16.33;;;;;;;-0.78;99.74;100200.38;5102075;28;20034;-70
2020/12/06 03:35:42;;;;;;;28.73;18.30;;;;;;;-0.83;99.77;100199.53;5091574;28;20121;-70
2020/12/06 03:38:08;;;;;;;29.60;18.45;;;;;;;-0.80;99.79;100197.78;5095919;28;20039;-70
2020/12/06 03:40:33;;;;;;;25.65;16.40;;;;;;;-0.83;99.62;100203.00;5094769;28;20098;-71
2020/12/06 03:42:58;;;;;;;25.88;16.98;;;;;;;-0.80;99.75;100200.38;5097904;28;20040;-70
2020/12/06 03:45:24;;;;;;;28.88;18.13;;;;;;;-0.90;100.00;100201.34;5095062;28;20040;-70
2020/12/06 03:47:49;;;;;;;34.58;19.15;;;;;;;-0.85;99.82;100194.38;5095336;28;20083;-70
2020/12/06 03:50:14;;;;;;;26.00;17.52;;;;;;;-0.87;99.88;100205.63;5096882;28;20107;-71
2020/12/06 03:52:40;;;;;;;26.95;17.77;;;;;;;-0.96;100.00;100198.75;5102327;28;20047;-71
2020/12/06 03:55:05;;;;;;;25.75;16.42;;;;;;;-0.95;100.00;100200.50;5098017;28;20027;-71
2020/12/06 03:57:31;;;;;;;31.25;18.63;;;;;;;-0.95;100.00;100202.25;5098679;28;20115;-71
2020/12/06 03:59:56;;;;;;;29.77;19.98;;;;;;;-1.00;100.00;100206.59;5093385;28;20028;-71
2020/12/06 04:02:22;;;;;;;28.73;17.88;;;;;;;-1.00;100.00;100197.09;5096844;28;20043;-71
2020/12/06 04:04:47;;;;;;;31.60;18.77;;;;;;;-1.07;100.00;100196.25;5099523;28;20582;-71
2020/12/06 04:07:12;;;;;;;30.35;19.02;;;;;;;-1.09;100.00;100190.22;5095859;28;20027;-71
2020/12/06 04:09:38;;;;;;;30.10;18.55;;;;;;;-1.14;100.00;100201.50;5098053;28;20378;-71
2020/12/06 04:12:03;;;;;;;30.83;18.65;;;;;;;-1.12;100.00;100205.81;5101031;28;20036;-73
2020/12/06 04:14:28;;;;;;;30.38;19.30;;;;;;;-1.12;100.00;100195.44;5098295;28;20063;-71
2020/12/06 04:16:54;;;;;;;37.70;20.10;;;;;;;-1.10;100.00;100209.25;5127470;27;20098;-71
2020/12/06 04:19:19;;;;;;;34.20;21.25;;;;;;;-1.13;100.00;100206.69;5104046;28;20559;-71
2020/12/06 04:21:44;;;;;;;34.20;19.05;;;;;;;-1.03;100.00;100199.69;5097317;28;20056;-71
2020/12/06 04:24:12;;;;;;;34.25;20.02;;;;;;;-1.02;100.00;100203.16;5105296;28;20028;-71
2020/12/06 04:26:38;;;;;;;33.47;21.95;;;;;;;-0.96;100.00;100200.50;5092061;28;20028;-71
2020/12/06 04:29:04;;;;;;;34.85;19.90;;;;;;;-1.00;100.00;100204.88;5100809;28;20065;-71
2020/12/06 04:31:29;;;;;;;32.95;19.40;;;;;;;-0.99;100.00;100200.53;5101028;28;20058;-71
2020/12/06 04:33:55;;;;;;;31.33;21.35;;;;;;;-0.93;100.00;100201.34;5101779;28;20035;-71
2020/12/06 04:36:20;;;;;;;37.88;22.40;;;;;;;-0.86;100.00;100208.19;5096745;28;20020;-71
2020/12/06 04:38:45;;;;;;;39.17;21.42;;;;;;;-0.86;100.00;100208.19;5102941;28;20028;-71
2020/12/06 04:41:10;;;;;;;41.92;24.33;;;;;;;-0.85;100.00;100207.34;5098550;28;20103;-71
2020/12/06 04:43:36;;;;;;;38.50;21.65;;;;;;;-0.85;100.00;100202.16;5101379;28;20035;-71
2020/12/06 04:46:02;;;;;;;37.95;23.13;;;;;;;-0.90;100.00;100183.19;5092480;28;20101;-71
2020/12/06 04:48:41;;;;;;;36.00;22.55;;;;;;;-0.74;100.00;100201.22;5099498;28;20036;-71
2020/12/06 04:51:07;;;;;;;37.33;22.23;;;;;;;-0.69;100.00;100202.88;5096530;28;20094;-71
2020/12/06 04:53:43;;;;;;;43.83;23.75;;;;;;;-0.72;100.00;100207.22;5096288;28;20539;-71
2020/12/06 04:56:11;;;;;;;35.92;21.98;;;;;;;-0.69;100.00;100208.06;5099602;28;20027;-71
2020/12/06 04:58:40;;;;;;;39.65;23.25;;;;;;;-0.63;100.00;100207.16;5101636;28;20063;-72
2020/12/06 05:01:05;;;;;;;39.28;23.40;;;;;;;-0.59;100.00;100219.25;5098015;28;20024;-73
2020/12/06 05:03:34;;;;;;;36.85;22.58;;;;;;;-0.60;100.00;100215.78;5107638;28;20103;-71
2020/12/06 05:06:00;;;;;;;38.25;22.40;;;;;;;-0.69;100.00;100215.00;5097525;28;20115;-71
2020/12/06 05:08:25;;;;;;;39.90;22.48;;;;;;;-0.68;100.00;100217.56;5099365;28;20024;-72
2020/12/06 05:10:51;;;;;;;38.42;21.95;;;;;;;-0.62;100.00;100219.25;5095954;28;20077;-72
2020/12/06 05:13:17;;;;;;;39.75;22.83;;;;;;;-0.62;100.00;100219.25;5101829;28;20023;-72
2020/12/06 05:15:43;;;;;;;35.45;21.92;;;;;;;-0.58;100.00;100213.16;5100475;28;20047;-72
2020/12/06 05:18:08;;;;;;;33.70;20.20;;;;;;;-0.63;100.00;100222.72;5103425;28;20020;-71
2020/12/06 05:20:35;;;;;;;36.63;20.95;;;;;;;-0.67;100.00;100219.28;5099759;28;20024;-72
2020/12/06 05:23:00;;;;;;;36.97;20.88;;;;;;;-0.64;100.00;100228.81;5102525;28;20036;-71
2020/12/06 05:25:26;;;;;;;32.45;19.25;;;;;;;-0.61;100.00;100226.16;5097229;28;20031;-72
2020/12/06 05:27:52;;;;;;;35.25;20.58;;;;;;;-0.63;100.00;100223.59;5095035;28;20106;-71
2020/12/06 05:30:18;;;;;;;32.05;19.58;;;;;;;-0.69;100.00;100222.78;5108988;28;20016;-71
2020/12/06 05:32:43;;;;;;;38.70;21.55;;;;;;;-0.65;100.00;100221.91;5119802;28;20019;-72
2020/12/06 05:35:10;;;;;;;35.53;19.13;;;;;;;-0.67;100.00;100221.03;5102311;28;20039;-70
2020/12/06 05:37:37;;;;;;;33.25;19.13;;;;;;;-0.72;100.00;100222.81;5111631;28;20027;-71
2020/12/06 05:40:07;;;;;;;29.52;18.83;;;;;;;-0.72;100.00;100225.41;5115363;28;20028;-71
2020/12/06 05:42:33;;;;;;;26.55;17.02;;;;;;;-0.74;100.00;100222.81;5112749;28;20097;-71
2020/12/06 05:44:59;;;;;;;30.60;17.92;;;;;;;-0.71;100.00;100227.13;5116395;28;20096;-71
2020/12/06 05:47:25;;;;;;;34.47;19.10;;;;;;;-0.72;100.00;100225.41;5111971;28;20020;-72
2020/12/06 05:49:50;;;;;;;29.88;18.77;;;;;;;-0.69;100.00;100226.25;5112296;28;20016;-71
2020/12/06 05:52:18;;;;;;;31.50;18.75;;;;;;;-0.67;100.00;100221.88;5103906;28;20450;-71
2020/12/06 05:54:45;;;;;;;28.70;17.33;;;;;;;-0.66;100.00;100220.16;5095321;28;20060;-70
2020/12/06 05:57:12;;;;;;;30.15;19.08;;;;;;;-0.63;100.00;100226.19;5099312;28;20535;-71
2020/12/06 05:59:38;;;;;;;27.58;17.63;;;;;;;-0.61;100.00;100224.41;5105751;28;20036;-71
2020/12/06 06:02:04;;;;;;;30.30;17.77;;;;;;;-0.59;100.00;100234.81;5105275;28;20032;-71
2020/12/06 06:04:36;;;;;;;29.17;18.02;;;;;;;-0.55;100.00;100229.59;5105619;28;20417;-71
2020/12/06 06:07:03;;;;;;;27.00;17.30;;;;;;;-0.54;100.00;100217.47;5107553;28;20075;-72
2020/12/06 06:09:32;;;;;;;28.95;17.65;;;;;;;-0.57;100.00;100220.94;5094101;28;20020;-72
2020/12/06 06:12:30;;;;;;;32.88;18.92;;;;;;;-0.55;100.00;100223.53;5088331;28;20025;-71
2020/12/06 06:15:00;;;;;;;26.63;16.45;;;;;;;-0.52;100.00;100208.78;5103199;27;20162;-71
2020/12/06 06:17:26;;;;;;;25.65;15.85;;;;;;;-0.47;100.00;100208.72;5089973;28;20397;-71
2020/12/06 06:19:52;;;;;;;30.10;18.92;;;;;;;-0.50;100.00;100218.28;5095285;28;20070;-70
2020/12/06 06:22:23;;;;;;;25.92;16.65;;;;;;;-0.79;100.00;100165.78;5092489;28;20461;-70
2020/12/06 06:24:49;;;;;;;30.38;18.02;;;;;;;-0.48;100.00;100217.41;5098105;28;20066;-70
2020/12/06 06:27:16;;;;;;;27.50;16.55;;;;;;;-0.44;100.00;100208.72;5095172;28;20028;-70
2020/12/06 06:29:43;;;;;;;29.58;18.98;;;;;;;-0.39;99.93;100212.13;5101854;28;20047;-75
2020/12/06 06:32:09;;;;;;;28.90;17.33;;;;;;;-0.42;100.00;100209.53;5080387;28;20428;-70
2020/12/06 06:34:36;;;;;;;25.30;16.15;;;;;;;-0.37;100.00;100210.38;5104584;28;20032;-71
2020/12/06 06:37:11;;;;;;;30.10;17.48;;;;;;;-0.40;100.00;100220.81;5097772;27;20397;-71
2020/12/06 06:39:39;;;;;;;28.30;17.33;;;;;;;-0.37;99.93;100220.75;5098835;28;20058;-71
2020/12/06 06:42:14;;;;;;;32.25;18.48;;;;;;;-0.34;100.00;100217.28;5093371;28;20070;-71
2020/12/06 06:44:43;;;;;;;32.97;19.95;;;;;;;-0.30;99.72;100216.38;5102769;28;20516;-72
2020/12/06 06:47:10;;;;;;;34.60;20.45;;;;;;;-0.21;99.77;100223.19;5096327;28;20483;-71
2020/12/06 06:49:51;;;;;;;32.17;19.85;;;;;;;-0.17;99.42;100225.75;5098976;28;20459;-71
2020/12/06 06:52:17;;;;;;;35.60;21.75;;;;;;;-0.13;99.52;100229.19;5094695;28;20069;-72
2020/12/06 06:54:46;;;;;;;33.65;20.13;;;;;;;-0.09;99.17;100234.31;5089343;28;20024;-73
2020/12/06 06:57:12;;;;;;;32.20;20.00;;;;;;;-0.13;98.99;100235.22;5097217;28;20111;-71
2020/12/06 06:59:42;;;;;;;37.28;20.42;;;;;;;-0.09;99.01;100239.53;5096789;28;20044;-72
2020/12/06 07:02:19;;;;;;;34.88;24.48;;;;;;;-0.10;98.96;100239.53;5096791;28;20032;-71
2020/12/06 07:04:47;;;;;;;39.63;29.30;;;;;;;-0.07;98.91;100239.50;5097610;28;20028;-72
2020/12/06 07:07:13;;;;;;;43.22;33.30;;;;;;;-0.06;98.92;100238.63;5096052;28;20508;-71
2020/12/06 07:09:39;;;;;;;40.22;27.73;;;;;;;-0.07;99.25;100237.75;5105132;28;20027;-72
2020/12/06 07:12:04;;;;;;;66.15;46.53;;;;;;;-0.05;98.70;100241.22;5077650;28;20024;-73
2020/12/06 07:14:29;;;;;;;41.22;24.65;;;;;;;-0.05;98.52;100242.94;5103085;28;20054;-73
2020/12/06 07:16:57;;;;;;;37.88;25.67;;;;;;;0.04;98.44;100237.63;5095831;28;20431;-73
2020/12/06 07:19:23;;;;;;;37.30;25.17;;;;;;;0.05;98.32;100241.97;5099682;28;20023;-73
2020/12/06 07:21:49;;;;;;;31.80;19.90;;;;;;;0.07;98.14;100247.16;5101587;28;20503;-73
2020/12/06 07:24:16;;;;;;;31.40;22.17;;;;;;;0.03;98.23;100241.13;5098098;28;20028;-72
2020/12/06 07:26:43;;;;;;;32.63;22.88;;;;;;;0.05;98.43;100236.78;5097806;28;20015;-72
2020/12/06 07:29:09;;;;;;;34.30;22.52;;;;;;;0.00;98.42;100233.38;5093791;28;20043;-72
2020/12/06 07:31:34;;;;;;;32.00;21.33;;;;;;;0.01;98.68;100231.63;5130577;27;20020;-72
2020/12/06 07:34:01;;;;;;;31.45;20.20;;;;;;;-0.02;98.74;100229.91;5095389;27;20509;-72
2020/12/06 07:36:31;;;;;;;32.85;20.80;;;;;;;-0.01;98.71;100229.88;5096400;28;20086;-70
2020/12/06 07:38:56;;;;;;;30.08;19.60;;;;;;;0.07;98.60;100227.22;5100366;28;20117;-70
2020/12/06 07:41:22;;;;;;;35.78;22.38;;;;;;;0.06;98.22;100229.84;5096356;28;20114;-71
2020/12/06 07:43:52;;;;;;;31.80;22.98;;;;;;;0.02;98.28;100239.41;5094476;28;20042;-69
2020/12/06 07:46:18;;;;;;;44.92;28.05;;;;;;;0.03;98.27;100233.31;5090675;28;20024;-71
2020/12/06 07:48:44;;;;;;;38.10;24.52;;;;;;;0.00;98.68;100241.16;5095959;28;20089;-70
2020/12/06 07:51:10;;;;;;;32.70;20.98;;;;;;;0.08;98.74;100251.47;5092137;28;20020;-70
2020/12/06 07:53:52;;;;;;;30.17;21.08;;;;;;;0.14;98.31;100246.19;5093925;28;20362;-69
2020/12/06 07:56:21;;;;;;;31.05;20.35;;;;;;;0.21;97.91;100245.25;5092085;28;20077;-72
2020/12/06 07:58:57;;;;;;;32.85;21.95;;;;;;;0.23;97.85;100239.16;5096565;28;20020;-71
2020/12/06 08:01:26;;;;;;;36.17;22.60;;;;;;;0.29;97.92;100238.22;5087507;28;20292;-71
2020/12/06 08:03:55;;;;;;;35.72;23.90;;;;;;;0.32;97.70;100239.94;5101129;28;20432;-71
2020/12/06 08:06:23;;;;;;;35.70;20.52;;;;;;;0.45;97.32;100229.38;5096418;28;20047;-71
2020/12/06 08:08:52;;;;;;;35.28;21.13;;;;;;;0.50;97.08;100229.28;5103841;28;20081;-70
2020/12/06 08:11:20;;;;;;;32.65;20.50;;;;;;;0.58;96.49;100227.44;5092371;28;20020;-71
2020/12/06 08:13:53;;;;;;;30.73;18.92;;;;;;;0.63;96.15;100219.59;5092587;28;20062;-71
2020/12/06 08:16:18;;;;;;;32.20;21.17;;;;;;;0.70;95.66;100211.69;5094407;28;20053;-71
2020/12/06 08:18:44;;;;;;;28.15;19.38;;;;;;;0.72;95.24;100209.91;5097210;28;20031;-70
2020/12/06 08:21:10;;;;;;;29.30;19.48;;;;;;;0.71;95.46;100213.41;5092929;28;20077;-71
2020/12/06 08:23:37;;;;;;;29.10;18.15;;;;;;;0.73;95.24;100229.84;5094961;28;20032;-70
2020/12/06 08:26:05;;;;;;;30.67;18.13;;;;;;;0.74;95.14;100226.34;5092273;28;20046;-71
2020/12/06 08:28:30;;;;;;;28.95;19.33;;;;;;;0.80;95.00;100234.94;5095843;28;20030;-70
2020/12/06 08:30:57;;;;;;;27.08;18.83;;;;;;;0.83;94.63;100232.31;5089370;28;20028;-70
2020/12/06 08:33:26;;;;;;;32.30;22.05;;;;;;;0.87;94.47;100244.41;5096509;28;20023;-70
2020/12/06 08:35:53;;;;;;;39.92;25.95;;;;;;;0.91;94.28;100238.28;5087993;28;20113;-70
2020/12/06 08:38:22;;;;;;;44.28;31.55;;;;;;;0.91;94.35;100240.88;5094849;28;20446;-70
2020/12/06 08:41:06;;;;;;;41.70;26.27;;;;;;;0.96;94.13;100233.88;5090732;28;20518;-70
2020/12/06 08:44:03;;;;;;;35.65;22.83;;;;;;;1.05;94.01;100225.91;5089668;28;20032;-71
2020/12/06 08:46:30;;;;;;;35.92;21.23;;;;;;;1.06;93.39;100219.84;5095466;28;20112;-71
2020/12/06 08:48:59;;;;;;;42.35;24.05;;;;;;;1.10;93.27;100220.63;5095115;28;20035;-71
2020/12/06 08:51:37;;;;;;;38.03;22.95;;;;;;;1.14;93.06;100222.31;5089996;28;20389;-70
2020/12/06 08:54:05;;;;;;;43.60;24.70;;;;;;;1.13;93.08;100217.97;5095194;28;20429;-71
2020/12/06 08:56:35;;;;;;;31.25;19.98;;;;;;;1.16;93.14;100228.38;5090561;28;20031;-71
2020/12/06 08:59:06;;;;;;;26.58;17.50;;;;;;;1.25;93.11;100226.44;5095148;28;20571;-71
2020/12/06 09:01:32;;;;;;;26.40;18.58;;;;;;;1.28;92.71;100229.00;5084391;28;20099;-72
2020/12/06 09:03:58;;;;;;;28.00;17.90;;;;;;;1.31;92.96;100227.25;5094479;28;20077;-70
2020/12/06 09:06:23;;;;;;;26.13;17.85;;;;;;;1.34;92.46;100230.66;5098571;28;20396;-71
2020/12/06 09:08:49;;;;;;;25.45;18.80;;;;;;;1.37;92.03;100219.34;5093624;28;20031;-71
2020/12/06 09:11:15;;;;;;;26.17;16.30;;;;;;;1.40;92.09;100224.47;5094124;28;20045;-71
2020/12/06 09:13:41;;;;;;;27.02;17.52;;;;;;;1.47;91.81;100226.09;5097561;28;20023;-71
2020/12/06 09:16:07;;;;;;;28.00;16.65;;;;;;;1.54;91.82;100217.28;5098648;28;20070;-72
2020/12/06 09:18:32;;;;;;;27.15;15.73;;;;;;;1.50;91.76;100216.47;5131087;27;20077;-72
2020/12/06 09:20:57;;;;;;;31.23;16.30;;;;;;;1.55;91.59;100216.41;5099509;28;20053;-72
2020/12/06 09:23:23;;;;;;;25.55;16.85;;;;;;;1.58;92.28;100213.75;5093764;28;20305;-72
2020/12/06 09:25:48;;;;;;;28.10;17.70;;;;;;;1.62;91.71;100220.63;5096605;28;20020;-72
2020/12/06 09:28:13;;;;;;;26.30;16.73;;;;;;;1.58;91.30;100231.13;5100191;28;20032;-72
2020/12/06 09:30:40;;;;;;;28.75;17.98;;;;;;;1.63;91.60;100232.75;5094803;28;20406;-70
2020/12/06 09:33:05;;;;;;;44.10;21.50;;;;;;;1.73;92.07;100226.50;5102329;28;20038;-71
2020/12/06 09:35:31;;;;;;;24.95;17.98;;;;;;;1.79;91.27;100228.13;5097144;28;20024;-71
2020/12/06 09:37:56;;;;;;;30.08;18.33;;;;;;;1.88;91.69;100221.91;5091461;28;20023;-72
2020/12/06 09:40:21;;;;;;;25.23;18.02;;;;;;;1.79;90.13;100222.94;5092831;28;20038;-72
2020/12/06 09:42:46;;;;;;;25.27;16.50;;;;;;;1.80;89.83;100220.28;5099132;28;20034;-72
2020/12/06 09:45:12;;;;;;;25.70;16.40;;;;;;;1.81;90.12;100215.97;5091204;28;20039;-71
2020/12/06 09:47:37;;;;;;;26.77;16.00;;;;;;;1.79;90.13;100209.91;5093622;28;20371;-72
2020/12/06 09:50:02;;;;;;;24.52;15.60;;;;;;;1.89;90.37;100214.03;5085745;28;20024;-71
2020/12/06 09:52:28;;;;;;;25.35;18.02;;;;;;;1.94;90.08;100211.34;5090486;28;20032;-71
2020/12/06 09:54:53;;;;;;;23.63;16.80;;;;;;;1.98;90.05;100218.22;5092723;28;20027;-72
2020/12/06 09:57:18;;;;;;;33.97;19.90;;;;;;;1.92;90.18;100215.75;5093611;28;20050;-72
2020/12/06 09:59:44;;;;;;;30.05;17.95;;;;;;;2.02;89.89;100212.06;5073748;28;20193;-71
2020/12/06 10:02:09;;;;;;;28.75;18.92;;;;;;;2.08;89.64;100211.94;5082668;28;20057;-72
2020/12/06 10:04:34;;;;;;;30.35;17.15;;;;;;;2.13;89.58;100214.47;5081622;28;20027;-72
2020/12/06 10:06:59;;;;;;;22.00;15.57;;;;;;;2.19;89.27;100206.53;5090815;28;20104;-72
2020/12/06 10:09:25;;;;;;;23.38;15.70;;;;;;;2.18;89.01;100202.19;5095950;28;20059;-72
2020/12/06 10:11:50;;;;;;;25.02;16.88;;;;;;;2.27;89.14;100189.84;5087996;28;20038;-72
2020/12/06 10:14:16;;;;;;;30.73;18.33;;;;;;;2.34;88.67;100191.41;5098919;28;20095;-72
2020/12/06 10:16:41;;;;;;;30.15;17.90;;;;;;;2.38;88.20;100180.94;5096003;28;20034;-72
2020/12/06 10:19:06;;;;;;;32.22;20.85;;;;;;;2.48;88.43;100188.53;5097504;28;20539;-72
2020/12/06 10:21:32;;;;;;;34.22;17.95;;;;;;;2.49;87.96;100182.41;5094150;28;20362;-72
2020/12/06 10:23:57;;;;;;;27.10;16.05;;;;;;;2.56;87.66;100170.97;5099351;28;20020;-71
2020/12/06 10:26:22;;;;;;;27.92;16.60;;;;;;;2.56;88.17;100178.78;5091297;28;20110;-71
2020/12/06 10:28:47;;;;;;;27.75;17.80;;;;;;;2.57;87.81;100185.72;5092160;28;20114;-71
2020/12/06 10:31:13;;;;;;;32.15;16.40;;;;;;;2.58;87.60;100192.66;5097188;28;20028;-70
2020/12/06 10:33:38;;;;;;;24.27;16.00;;;;;;;2.56;87.74;100188.34;5091358;28;20036;-72
2020/12/06 10:36:03;;;;;;;28.13;18.65;;;;;;;2.53;87.48;100186.66;5095080;28;20024;-71
2020/12/06 10:38:29;;;;;;;24.75;15.90;;;;;;;2.66;87.33;100186.38;5093058;28;20470;-71
2020/12/06 10:40:54;;;;;;;25.67;17.42;;;;;;;2.51;87.42;100196.28;5096194;28;20085;-71
2020/12/06 10:43:19;;;;;;;25.45;16.98;;;;;;;2.62;87.88;100197.81;5090611;28;20024;-72
2020/12/06 10:45:44;;;;;;;25.70;16.27;;;;;;;2.52;87.68;100184.97;5090201;28;20020;-72
2020/12/06 10:48:10;;;;;;;25.73;16.90;;;;;;;2.54;88.02;100193.59;5089307;28;20039;-72
2020/12/06 10:50:35;;;;;;;24.52;16.52;;;;;;;2.59;87.75;100176.09;5091918;28;20021;-72
2020/12/06 10:53:00;;;;;;;25.42;16.70;;;;;;;2.60;87.84;100166.50;5094230;28;20027;-72
2020/12/06 10:55:26;;;;;;;27.30;17.85;;;;;;;2.63;88.23;100163.00;5094686;28;20024;-72
2020/12/06 10:57:53;;;;;;;26.90;17.30;;;;;;;2.72;88.26;100162.78;5099452;28;20027;-72
2020/12/06 11:00:18;;;;;;;30.40;19.00;;;;;;;2.77;87.45;100169.59;5094969;28;20028;-72
2020/12/06 11:02:44;;;;;;;30.23;19.63;;;;;;;2.79;87.45;100159.13;5098231;28;20473;-74
2020/12/06 11:05:09;;;;;;;26.17;17.38;;;;;;;2.80;87.67;100159.09;5095062;28;20500;-71
2020/12/06 11:07:34;;;;;;;25.30;17.05;;;;;;;2.87;87.21;100158.97;5089466;28;20129;-72
2020/12/06 11:09:59;;;;;;;28.10;16.33;;;;;;;2.84;87.00;100159.88;5092669;28;20035;-72
2020/12/06 11:12:25;;;;;;;22.73;15.60;;;;;;;2.90;87.42;100169.31;5090276;28;20050;-72
2020/12/06 11:14:50;;;;;;;26.10;17.27;;;;;;;2.79;87.25;100175.63;5102503;28;20044;-73